Time;durP1;ratioP1;P1;durP2;ratioP2;P2;SDS_P1;SDS_P2;PMS_P1;PMS_P2;Temp;Humidity;BMP_temperature;BMP_pressure;BME280_temperature;BME280_humidity;BME280_pressure;Samples;Min_cycle;Max_cycle;Signal;HPM_P1;HPM_P2
2022/11/27 00:02:22;;;;;;;8.00;4.80;;;5.40;96.00;;;;;;5020081;28;20435;-72
2022/11/27 00:04:49;;;;;;;7.68;4.57;;;5.50;96.10;;;;;;5028764;28;20442;-71
2022/11/27 00:07:15;;;;;;;6.70;4.35;;;5.40;96.10;;;;;;5022857;28;20422;-71
2022/11/27 00:09:42;;;;;;;8.38;5.20;;;5.40;96.00;;;;;;5029997;28;20427;-72
2022/11/27 00:12:10;;;;;;;7.22;4.65;;;5.40;96.10;;;;;;5026186;28;20446;-72
2022/11/27 00:14:37;;;;;;;9.65;4.70;;;5.40;96.10;;;;;;5029934;28;20435;-72
2022/11/27 00:17:04;;;;;;;8.65;4.82;;;5.40;96.10;;;;;;5026932;28;20438;-72
2022/11/27 00:19:30;;;;;;;7.30;4.80;;;5.40;96.10;;;;;;5029400;28;20450;-71
2022/11/27 00:21:57;;;;;;;7.82;4.28;;;5.40;96.20;;;;;;5030492;28;20431;-72
2022/11/27 00:24:24;;;;;;;8.00;4.82;;;5.40;96.20;;;;;;5025598;28;20438;-72
2022/11/27 00:26:51;;;;;;;7.32;4.28;;;5.40;96.30;;;;;;5029564;28;20431;-71
2022/11/27 00:29:19;;;;;;;6.10;4.20;;;5.30;96.20;;;;;;5029968;28;20415;-72
2022/11/27 00:31:46;;;;;;;5.97;3.90;;;5.30;96.30;;;;;;5028787;28;20441;-72
2022/11/27 00:34:12;;;;;;;7.63;4.20;;;5.40;96.30;;;;;;5021642;28;20461;-72
2022/11/27 00:36:39;;;;;;;7.13;4.00;;;5.30;96.20;;;;;;5026086;28;20437;-71
2022/11/27 00:39:06;;;;;;;8.90;4.90;;;5.30;96.20;;;;;;5026098;28;20435;-72
2022/11/27 00:41:33;;;;;;;7.47;4.00;;;5.40;96.10;;;;;;5026336;28;20441;-71
2022/11/27 00:44:00;;;;;;;5.40;3.53;;;5.40;96.10;;;;;;5026592;28;20454;-72
2022/11/27 00:46:30;;;;;;;6.25;4.13;;;5.40;96.00;;;;;;5026563;28;20435;-71
2022/11/27 00:48:58;;;;;;;8.30;3.85;;;5.40;95.90;;;;;;5023259;28;20548;-71
2022/11/27 00:51:25;;;;;;;5.78;4.10;;;5.40;95.90;;;;;;5020478;28;20438;-71
2022/11/27 00:53:52;;;;;;;6.90;3.97;;;5.40;95.80;;;;;;5025748;28;20435;-71
2022/11/27 00:56:21;;;;;;;7.00;3.70;;;5.40;95.70;;;;;;5025973;28;20438;-71
2022/11/27 00:58:48;;;;;;;5.55;3.50;;;5.50;95.80;;;;;;5026288;28;20446;-71
2022/11/27 01:01:17;;;;;;;6.68;3.60;;;5.50;95.60;;;;;;5026214;28;20519;-71
2022/11/27 01:03:46;;;;;;;5.25;3.67;;;5.40;95.60;;;;;;5025573;28;20435;-71
2022/11/27 01:06:13;;;;;;;4.70;3.13;;;5.40;95.60;;;;;;5024438;28;20434;-72
2022/11/27 01:08:41;;;;;;;6.20;2.87;;;5.40;95.90;;;;;;5023981;28;20529;-71
2022/11/27 01:11:08;;;;;;;7.82;4.18;;;5.40;95.50;;;;;;5022008;28;20895;-72
2022/11/27 01:13:36;;;;;;;5.15;3.38;;;5.50;95.50;;;;;;5019021;28;20436;-72
2022/11/27 01:16:05;;;;;;;4.45;2.88;;;5.50;95.40;;;;;;5015623;28;20434;-72
2022/11/27 01:18:32;;;;;;;6.70;3.70;;;5.50;95.30;;;;;;5027171;28;20920;-72
2022/11/27 01:21:01;;;;;;;5.88;3.72;;;5.50;95.30;;;;;;5026193;28;20426;-72
2022/11/27 01:23:28;;;;;;;5.03;3.03;;;5.50;95.20;;;;;;5026257;28;20518;-72
2022/11/27 01:25:55;;;;;;;6.45;4.03;;;5.40;95.20;;;;;;5024238;28;20438;-72
2022/11/27 01:28:23;;;;;;;7.37;3.50;;;5.50;95.10;;;;;;5024150;28;20485;-72
2022/11/27 01:30:51;;;;;;;5.18;3.65;;;5.50;95.00;;;;;;5032809;28;20434;-72
2022/11/27 01:33:19;;;;;;;5.82;3.03;;;5.50;95.00;;;;;;5043972;28;20940;-72
2022/11/27 01:35:54;;;;;;;5.80;3.50;;;5.50;95.00;;;;;;5042572;28;20465;-72
2022/11/27 01:38:22;;;;;;;5.67;3.73;;;5.50;95.10;;;;;;5020610;28;20447;-72
2022/11/27 01:40:50;;;;;;;5.32;3.30;;;5.40;95.00;;;;;;5020251;28;20433;-72
2022/11/27 01:43:16;;;;;;;6.55;3.80;;;5.40;94.90;;;;;;5015541;28;20568;-71
2022/11/27 01:45:45;;;;;;;4.80;3.60;;;5.40;94.90;;;;;;5024699;28;20441;-72
2022/11/27 01:48:14;;;;;;;6.53;3.30;;;5.50;95.00;;;;;;5025026;28;20441;-72
2022/11/27 01:50:41;;;;;;;4.63;3.70;;;5.50;94.80;;;;;;5020341;28;20444;-72
2022/11/27 01:53:15;;;;;;;5.90;3.50;;;5.40;94.70;;;;;;5005650;28;20989;-72
2022/11/27 01:55:47;;;;;;;6.57;3.30;;;5.50;94.70;;;;;;5016251;28;20446;-72
2022/11/27 01:58:19;;;;;;;6.07;3.35;;;5.50;94.70;;;;;;5017857;28;20427;-72
2022/11/27 02:00:45;;;;;;;4.93;3.78;;;5.40;94.50;;;;;;5022596;28;20435;-72
2022/11/27 02:03:12;;;;;;;4.75;3.40;;;5.50;94.60;;;;;;5024546;28;20431;-71
2022/11/27 02:05:39;;;;;;;6.50;3.47;;;5.40;94.60;;;;;;5020847;28;20515;-72
2022/11/27 02:08:09;;;;;;;5.57;3.90;;;5.50;94.50;;;;;;5026008;28;20518;-72
2022/11/27 02:10:47;;;;;;;5.55;3.80;;;5.50;94.50;;;;;;5027066;28;20806;-71
2022/11/27 02:13:23;;;;;;;6.15;4.25;;;5.40;94.50;;;;;;5017280;28;20529;-72
2022/11/27 02:15:58;;;;;;;6.50;4.22;;;5.40;94.50;;;;;;5016332;28;21138;-71
2022/11/27 02:18:30;;;;;;;6.55;4.10;;;5.40;94.50;;;;;;5022243;28;20993;-72
2022/11/27 02:21:04;;;;;;;5.50;4.00;;;5.40;94.50;;;;;;5026224;28;20430;-72
2022/11/27 02:24:06;;;;;;;6.07;4.80;;;5.40;94.40;;;;;;5029435;28;20419;-72
2022/11/27 02:26:58;;;;;;;6.40;4.35;;;5.40;94.50;;;;;;5026567;28;20975;-72
2022/11/27 02:29:28;;;;;;;9.40;5.07;;;5.30;94.50;;;;;;5025156;28;20909;-72
2022/11/27 02:31:59;;;;;;;8.68;4.90;;;5.30;94.60;;;;;;5020630;28;20446;-72
2022/11/27 02:34:34;;;;;;;7.30;5.43;;;5.30;94.70;;;;;;5027987;28;21087;-72
2022/11/27 02:37:06;;;;;;;7.32;5.20;;;5.30;94.70;;;;;;5029635;28;20488;-72
2022/11/27 02:39:38;;;;;;;7.05;5.93;;;5.30;94.70;;;;;;5028683;28;20422;-71
2022/11/27 02:42:11;;;;;;;8.75;5.90;;;5.30;94.80;;;;;;5029215;28;20430;-71
2022/11/27 02:44:44;;;;;;;8.80;5.80;;;5.30;94.90;;;;;;5027203;28;20433;-71
2022/11/27 02:47:13;;;;;;;10.95;6.57;;;5.20;94.90;;;;;;5025854;28;20430;-72
2022/11/27 02:49:42;;;;;;;9.27;7.50;;;5.20;94.90;;;;;;5028580;28;20425;-71
2022/11/27 02:52:12;;;;;;;11.05;7.00;;;5.20;94.90;;;;;;5029171;28;20419;-72
2022/11/27 02:54:41;;;;;;;9.35;6.50;;;5.20;94.90;;;;;;5027720;28;20422;-71
2022/11/27 02:57:09;;;;;;;10.60;7.28;;;5.20;94.90;;;;;;5029112;28;20462;-71
2022/11/27 02:59:37;;;;;;;9.95;7.30;;;5.20;95.10;;;;;;5027128;28;20422;-71
2022/11/27 03:02:18;;;;;;;11.77;7.80;;;5.10;95.10;;;;;;5026919;28;20430;-72
2022/11/27 03:04:48;;;;;;;11.25;8.30;;;5.10;95.20;;;;;;5027669;28;20522;-72
2022/11/27 03:07:22;;;;;;;10.60;7.95;;;5.10;95.20;;;;;;5020491;28;20784;-71
2022/11/27 03:09:51;;;;;;;11.35;8.52;;;5.10;95.20;;;;;;5026133;28;20451;-71
2022/11/27 03:12:18;;;;;;;11.23;8.07;;;5.10;95.20;;;;;;5025983;28;20438;-72
2022/11/27 03:14:47;;;;;;;10.95;7.93;;;5.10;95.30;;;;;;5021984;28;20434;-72
2022/11/27 03:17:25;;;;;;;12.70;8.73;;;5.00;95.40;;;;;;5026046;28;20443;-71
2022/11/27 03:19:54;;;;;;;12.80;8.85;;;5.00;95.40;;;;;;5027466;28;20438;-72
2022/11/27 03:22:21;;;;;;;12.25;9.15;;;5.00;95.50;;;;;;5026436;28;20422;-71
2022/11/27 03:24:49;;;;;;;13.13;9.50;;;5.00;95.40;;;;;;5032235;28;20434;-72
2022/11/27 03:27:21;;;;;;;12.20;9.23;;;5.00;95.40;;;;;;5036432;28;20453;-71
2022/11/27 03:29:51;;;;;;;15.60;10.33;;;5.00;95.40;;;;;;5033018;28;20447;-72
2022/11/27 03:32:20;;;;;;;11.82;9.13;;;5.00;95.30;;;;;;5033270;28;20434;-72
2022/11/27 03:34:48;;;;;;;15.07;10.23;;;5.00;95.40;;;;;;5034109;28;20426;-71
2022/11/27 03:37:15;;;;;;;13.40;9.43;;;5.00;95.40;;;;;;5036196;28;20471;-72
2022/11/27 03:39:42;;;;;;;12.02;9.30;;;5.00;95.40;;;;;;5034701;28;20445;-72
2022/11/27 03:42:17;;;;;;;13.95;10.27;;;5.00;95.40;;;;;;5036516;28;20524;-71
2022/11/27 03:44:51;;;;;;;14.27;10.40;;;5.00;95.40;;;;;;5037407;28;20520;-72
2022/11/27 03:47:27;;;;;;;14.45;10.45;;;5.00;95.40;;;;;;5039728;28;20417;-72
2022/11/27 03:50:10;;;;;;;14.97;9.40;;;5.00;95.30;;;;;;5039176;28;20432;-72
2022/11/27 03:52:47;;;;;;;13.00;9.55;;;5.00;95.30;;;;;;5047210;28;20927;-72
2022/11/27 03:55:21;;;;;;;14.35;10.55;;;5.00;95.20;;;;;;5035267;28;20456;-72
2022/11/27 03:57:54;;;;;;;13.55;9.88;;;5.00;95.20;;;;;;5026416;28;20441;-72
2022/11/27 04:00:21;;;;;;;12.60;9.35;;;5.00;95.30;;;;;;5026097;28;20431;-72
2022/11/27 04:02:51;;;;;;;14.45;9.10;;;5.00;95.20;;;;;;5025082;28;20431;-71
2022/11/27 04:05:20;;;;;;;11.48;9.48;;;5.00;95.20;;;;;;5025686;28;21099;-71
2022/11/27 04:07:46;;;;;;;15.60;10.33;;;5.00;95.40;;;;;;5027469;28;20463;-72
2022/11/27 04:10:13;;;;;;;13.25;9.98;;;5.10;95.00;;;;;;5026053;28;20435;-71
2022/11/27 04:12:40;;;;;;;13.68;10.30;;;5.00;95.10;;;;;;5026107;28;20423;-71
2022/11/27 04:15:07;;;;;;;11.68;10.48;;;5.00;95.00;;;;;;5020216;28;20439;-72
2022/11/27 04:17:34;;;;;;;11.50;9.30;;;5.10;94.90;;;;;;5025734;28;20459;-71
2022/11/27 04:20:02;;;;;;;11.15;9.30;;;5.10;94.90;;;;;;5025218;28;20430;-72
2022/11/27 04:22:29;;;;;;;14.25;9.77;;;5.00;94.80;;;;;;5026823;28;20423;-72
2022/11/27 04:24:56;;;;;;;11.85;9.52;;;5.10;94.80;;;;;;5025408;28;20431;-72
2022/11/27 04:27:23;;;;;;;12.07;8.80;;;5.10;94.60;;;;;;5019183;28;20457;-72
2022/11/27 04:29:49;;;;;;;13.07;9.70;;;5.10;94.60;;;;;;5022471;28;20436;-72
2022/11/27 04:32:16;;;;;;;13.37;9.47;;;5.10;94.70;;;;;;5018652;28;20427;-72
2022/11/27 04:34:43;;;;;;;11.02;9.15;;;5.10;94.70;;;;;;5024073;28;20437;-71
2022/11/27 04:37:11;;;;;;;11.38;9.18;;;5.10;94.70;;;;;;5011902;28;20449;-71
2022/11/27 04:39:38;;;;;;;12.93;8.60;;;5.00;94.70;;;;;;5025546;28;20478;-72
2022/11/27 04:42:04;;;;;;;12.30;9.70;;;5.00;94.80;;;;;;5025574;28;20431;-71
2022/11/27 04:44:31;;;;;;;11.52;8.50;;;5.00;94.80;;;;;;5025191;28;21028;-71
2022/11/27 04:46:58;;;;;;;10.33;8.73;;;5.00;94.70;;;;;;5023608;28;20612;-71
2022/11/27 04:49:25;;;;;;;11.88;9.15;;;5.00;94.70;;;;;;5025027;28;20415;-72
2022/11/27 04:51:51;;;;;;;13.55;8.90;;;5.00;94.70;;;;;;5017267;28;20452;-72
2022/11/27 04:54:20;;;;;;;11.15;8.32;;;5.00;94.50;;;;;;5022161;28;20440;-72
2022/11/27 04:56:46;;;;;;;13.00;8.05;;;5.10;94.50;;;;;;5022895;28;20961;-72
2022/11/27 04:59:13;;;;;;;11.65;8.38;;;5.10;94.50;;;;;;5014069;28;20537;-71
2022/11/27 05:01:40;;;;;;;13.77;9.10;;;5.10;94.40;;;;;;5024896;28;20540;-71
2022/11/27 05:04:06;;;;;;;9.38;8.07;;;5.10;94.40;;;;;;5038108;28;20426;-72
2022/11/27 05:06:33;;;;;;;11.50;8.00;;;5.10;94.40;;;;;;5029804;28;20438;-72
2022/11/27 05:09:00;;;;;;;10.73;7.60;;;5.10;94.30;;;;;;5021545;28;20417;-72
2022/11/27 05:11:30;;;;;;;9.23;7.68;;;5.10;94.20;;;;;;5027987;28;20430;-72
2022/11/27 05:16:37;;;;;;;8.10;7.30;;;5.10;94.30;;;;;;5022936;28;20423;-72
2022/11/27 05:19:04;;;;;;;11.13;7.80;;;5.10;94.30;;;;;;5025974;28;20442;-72
2022/11/27 05:21:31;;;;;;;9.77;7.32;;;5.10;94.20;;;;;;5026699;28;20491;-72
2022/11/27 05:23:58;;;;;;;9.30;7.90;;;5.10;94.10;;;;;;5024187;28;20439;-72
2022/11/27 05:26:24;;;;;;;9.93;7.25;;;5.10;94.10;;;;;;5023494;28;20507;-72
2022/11/27 05:28:52;;;;;;;9.90;7.50;;;5.20;94.10;;;;;;5019408;28;20442;-71
2022/11/27 05:31:19;;;;;;;8.00;7.20;;;5.10;94.20;;;;;;5023433;28;20446;-72
2022/11/27 05:33:46;;;;;;;9.33;7.07;;;5.10;94.10;;;;;;5026066;28;20414;-72
2022/11/27 05:36:13;;;;;;;8.50;6.97;;;5.20;94.00;;;;;;5025046;28;20516;-72
2022/11/27 05:38:40;;;;;;;8.32;6.85;;;5.20;94.00;;;;;;5039552;28;20441;-72
2022/11/27 05:41:07;;;;;;;8.02;6.40;;;5.10;94.00;;;;;;5041929;28;20431;-71
2022/11/27 05:43:34;;;;;;;8.25;6.50;;;5.20;94.00;;;;;;5038534;28;20451;-72
2022/11/27 05:46:06;;;;;;;8.83;7.10;;;5.20;94.10;;;;;;5040872;28;20415;-71
2022/11/27 05:48:33;;;;;;;7.78;6.82;;;5.20;94.00;;;;;;5038664;28;20509;-73
2022/11/27 05:50:59;;;;;;;11.00;6.95;;;5.20;94.00;;;;;;5042860;28;20502;-72
2022/11/27 05:53:26;;;;;;;8.90;6.57;;;5.20;94.10;;;;;;5044361;28;20413;-71
2022/11/27 05:55:53;;;;;;;8.23;6.30;;;5.20;93.80;;;;;;5035932;28;21524;-71
2022/11/27 05:58:20;;;;;;;8.52;6.65;;;5.20;93.90;;;;;;5038556;28;20510;-72
2022/11/27 06:00:47;;;;;;;8.90;6.30;;;5.30;94.00;;;;;;5024529;28;20427;-72
2022/11/27 06:03:15;;;;;;;8.07;6.10;;;5.20;94.00;;;;;;5025809;28;20411;-72
2022/11/27 06:05:42;;;;;;;10.43;7.00;;;5.20;94.10;;;;;;5023615;28;20437;-72
2022/11/27 06:08:09;;;;;;;7.65;6.70;;;5.30;93.90;;;;;;5010158;28;20434;-72
2022/11/27 06:10:38;;;;;;;8.48;6.15;;;5.30;93.90;;;;;;5016659;28;20439;-72
2022/11/27 06:13:04;;;;;;;8.77;6.20;;;5.30;93.90;;;;;;5014213;28;20435;-73
2022/11/27 06:15:31;;;;;;;8.47;6.53;;;5.30;93.90;;;;;;5016666;28;20437;-72
2022/11/27 06:17:58;;;;;;;7.90;6.43;;;5.30;93.90;;;;;;5022358;28;20431;-72
2022/11/27 06:20:26;;;;;;;8.95;6.47;;;5.30;93.80;;;;;;5022262;28;20442;-73
2022/11/27 06:22:53;;;;;;;6.95;6.18;;;5.30;94.00;;;;;;5023253;28;20448;-72
2022/11/27 06:25:20;;;;;;;9.75;6.70;;;5.30;94.10;;;;;;5019316;28;20441;-72
2022/11/27 06:27:46;;;;;;;7.80;6.47;;;5.30;94.10;;;;;;5023113;28;20465;-72
2022/11/27 06:30:14;;;;;;;8.98;6.72;;;5.30;94.10;;;;;;5020006;28;20446;-72
2022/11/27 06:32:40;;;;;;;8.10;6.03;;;5.30;94.20;;;;;;5024799;28;20509;-72
2022/11/27 06:35:08;;;;;;;7.03;5.90;;;5.30;94.20;;;;;;5022942;28;20454;-72
2022/11/27 06:37:36;;;;;;;7.07;6.22;;;5.40;94.20;;;;;;5020410;28;20785;-72
2022/11/27 06:40:04;;;;;;;7.78;6.38;;;5.40;94.20;;;;;;5014973;28;20463;-72
2022/11/27 06:42:31;;;;;;;11.40;6.80;;;5.40;94.20;;;;;;5020247;28;20426;-72
2022/11/27 06:44:58;;;;;;;9.65;6.95;;;5.40;94.10;;;;;;5019751;28;20497;-72
2022/11/27 06:47:25;;;;;;;9.38;6.20;;;5.40;94.20;;;;;;5022190;28;20437;-72
2022/11/27 06:49:52;;;;;;;6.63;5.93;;;5.40;94.20;;;;;;5021965;28;20436;-71
2022/11/27 06:52:18;;;;;;;9.25;6.15;;;5.40;94.10;;;;;;5019761;28;20849;-72
2022/11/27 06:54:47;;;;;;;7.18;5.43;;;5.50;94.10;;;;;;5017120;28;20442;-71
2022/11/27 06:57:14;;;;;;;9.40;6.17;;;5.50;93.90;;;;;;5025193;28;20442;-71
2022/11/27 06:59:40;;;;;;;8.40;5.82;;;5.50;93.90;;;;;;5025370;28;20532;-72
2022/11/27 07:02:13;;;;;;;7.40;5.50;;;5.60;93.70;;;;;;5023372;28;21333;-73
2022/11/27 07:04:40;;;;;;;6.13;5.10;;;5.60;93.70;;;;;;5021941;28;20431;-72
2022/11/27 07:07:06;;;;;;;5.95;5.00;;;5.60;93.50;;;;;;5025180;28;20491;-72
2022/11/27 07:09:33;;;;;;;6.15;5.55;;;5.60;93.50;;;;;;5024551;28;20460;-71
2022/11/27 07:12:03;;;;;;;8.10;5.40;;;5.70;93.30;;;;;;5025034;28;20871;-72
2022/11/27 07:14:31;;;;;;;6.90;5.38;;;5.70;93.20;;;;;;5025882;28;20514;-72
2022/11/27 07:16:57;;;;;;;6.97;4.85;;;5.70;93.30;;;;;;5024662;28;21227;-72
2022/11/27 07:19:24;;;;;;;6.53;4.45;;;5.80;93.10;;;;;;5026340;28;20430;-73
2022/11/27 07:21:51;;;;;;;6.40;5.20;;;5.80;93.10;;;;;;5027925;28;20442;-73
2022/11/27 07:24:19;;;;;;;7.80;5.40;;;5.80;93.00;;;;;;5025971;28;20512;-72
2022/11/27 07:26:46;;;;;;;5.97;4.85;;;5.80;92.90;;;;;;5026855;28;20439;-72
2022/11/27 07:29:14;;;;;;;4.88;4.38;;;5.90;92.70;;;;;;5021404;28;20518;-72
2022/11/27 07:31:40;;;;;;;5.78;4.63;;;5.90;92.70;;;;;;5027497;28;20925;-73
2022/11/27 07:34:07;;;;;;;7.00;4.80;;;6.00;92.70;;;;;;5027793;28;20446;-72
2022/11/27 07:36:34;;;;;;;5.15;4.60;;;6.00;92.60;;;;;;5026764;28;20446;-73
2022/11/27 07:39:01;;;;;;;7.07;5.13;;;6.00;92.50;;;;;;5027573;28;20478;-72
2022/11/27 07:41:27;;;;;;;6.13;4.80;;;6.00;92.40;;;;;;5026938;28;20426;-72
2022/11/27 07:43:54;;;;;;;5.82;4.68;;;6.00;92.40;;;;;;5019890;28;20778;-72
2022/11/27 07:46:24;;;;;;;7.30;4.60;;;6.10;92.40;;;;;;5026745;28;20431;-72
2022/11/27 07:48:51;;;;;;;6.80;4.87;;;6.10;92.30;;;;;;5021900;28;20928;-73
2022/11/27 07:51:20;;;;;;;6.35;4.70;;;6.10;92.20;;;;;;5013215;28;20435;-73
2022/11/27 07:53:47;;;;;;;7.00;5.18;;;6.10;92.20;;;;;;5024936;28;20442;-73
2022/11/27 07:56:15;;;;;;;7.20;5.88;;;6.20;92.20;;;;;;5029729;28;20423;-73
2022/11/27 07:58:42;;;;;;;5.97;5.38;;;6.20;92.30;;;;;;5011953;28;20468;-73
2022/11/27 08:01:11;;;;;;;5.95;5.15;;;6.20;92.10;;;;;;5019084;28;20435;-72
2022/11/27 08:03:42;;;;;;;6.40;5.37;;;6.30;92.10;;;;;;5026478;28;20434;-74
2022/11/27 08:06:15;;;;;;;6.85;5.40;;;6.30;92.00;;;;;;5025536;28;20439;-74
2022/11/27 08:08:42;;;;;;;6.18;5.00;;;6.30;92.00;;;;;;5020610;28;20913;-73
2022/11/27 08:11:18;;;;;;;6.43;5.30;;;6.40;91.70;;;;;;5023535;28;21039;-73
2022/11/27 08:13:45;;;;;;;5.55;5.05;;;6.40;91.60;;;;;;5022582;28;20507;-73
2022/11/27 08:16:12;;;;;;;7.95;5.63;;;6.50;91.50;;;;;;5025147;28;20963;-73
2022/11/27 08:18:40;;;;;;;7.00;5.32;;;6.50;91.60;;;;;;5027571;28;20431;-73
2022/11/27 08:21:07;;;;;;;6.95;5.00;;;6.50;91.70;;;;;;5030780;28;20437;-73
2022/11/27 08:23:34;;;;;;;6.88;6.10;;;6.50;91.70;;;;;;5017607;28;20467;-73
2022/11/27 08:26:05;;;;;;;7.70;5.80;;;6.50;91.70;;;;;;5026020;28;20445;-73
2022/11/27 08:28:31;;;;;;;6.30;5.70;;;6.60;91.40;;;;;;5022625;28;20761;-73
2022/11/27 08:30:59;;;;;;;8.23;5.20;;;6.60;91.40;;;;;;5018625;28;20436;-73
2022/11/27 08:33:26;;;;;;;5.90;5.30;;;6.60;91.50;;;;;;5023719;28;20422;-73
2022/11/27 08:35:54;;;;;;;6.93;5.60;;;6.70;91.40;;;;;;5026795;28;20539;-73
2022/11/27 08:38:21;;;;;;;6.80;5.50;;;6.70;91.30;;;;;;5013035;28;20434;-73
2022/11/27 08:40:55;;;;;;;6.22;5.38;;;6.70;91.50;;;;;;5019693;28;20499;-73
2022/11/27 08:43:21;;;;;;;7.07;5.60;;;6.80;91.40;;;;;;5026208;28;20442;-73
2022/11/27 08:45:48;;;;;;;6.50;5.90;;;6.80;91.20;;;;;;5025199;28;20435;-73
2022/11/27 08:48:17;;;;;;;6.93;5.85;;;6.90;91.20;;;;;;5021244;28;22512;-73
2022/11/27 08:50:44;;;;;;;6.70;5.77;;;7.00;90.80;;;;;;5025114;28;20830;-73
2022/11/27 08:53:12;;;;;;;7.30;5.97;;;7.00;90.70;;;;;;5018040;28;20458;-72
2022/11/27 08:55:39;;;;;;;7.93;6.10;;;7.10;90.60;;;;;;5021204;28;20449;-72
2022/11/27 08:58:06;;;;;;;8.13;6.28;;;7.10;90.60;;;;;;5025533;28;20454;-73
2022/11/27 09:00:34;;;;;;;6.93;5.88;;;7.10;90.40;;;;;;5026072;28;20800;-72
2022/11/27 09:03:02;;;;;;;6.78;6.10;;;7.20;90.40;;;;;;5025614;28;20427;-73
2022/11/27 09:05:30;;;;;;;6.82;6.07;;;7.20;90.20;;;;;;5024736;28;20435;-73
2022/11/27 09:07:57;;;;;;;7.28;5.97;;;7.20;90.00;;;;;;5020264;28;20447;-73
2022/11/27 09:10:25;;;;;;;5.60;5.10;;;7.20;90.10;;;;;;5016301;28;20482;-72
2022/11/27 09:12:54;;;;;;;6.15;5.50;;;7.30;90.00;;;;;;5018833;28;20442;-72
2022/11/27 09:15:21;;;;;;;7.75;5.40;;;7.30;90.00;;;;;;5020831;28;20544;-72
2022/11/27 09:17:48;;;;;;;7.10;5.30;;;7.30;89.50;;;;;;5025034;28;20429;-72
2022/11/27 09:20:15;;;;;;;6.00;5.40;;;7.40;88.20;;;;;;5023371;28;20433;-72
2022/11/27 09:22:41;;;;;;;6.47;5.20;;;7.40;88.20;;;;;;5025717;28;20956;-73
2022/11/27 09:25:09;;;;;;;6.20;4.63;;;7.40;88.20;;;;;;5022836;28;20430;-72
2022/11/27 09:27:38;;;;;;;6.00;5.40;;;7.40;87.90;;;;;;5022900;28;20442;-73
2022/11/27 09:30:08;;;;;;;6.40;5.70;;;7.40;87.70;;;;;;5013290;28;20432;-65
2022/11/27 09:32:35;;;;;;;5.70;5.20;;;7.50;87.60;;;;;;5015114;28;20438;-62
2022/11/27 09:35:02;;;;;;;6.80;5.10;;;7.50;87.30;;;;;;5022386;28;20434;-72
2022/11/27 09:37:29;;;;;;;6.78;4.95;;;7.60;86.90;;;;;;5021444;28;20466;-71
2022/11/27 09:39:56;;;;;;;5.50;5.00;;;7.60;86.50;;;;;;5019372;28;20436;-74
2022/11/27 09:42:37;;;;;;;6.27;5.60;;;7.60;85.70;;;;;;5017723;28;20536;-74
2022/11/27 09:45:11;;;;;;;6.22;5.32;;;7.60;85.70;;;;;;5007669;28;20784;-74
2022/11/27 09:47:41;;;;;;;6.55;5.57;;;7.70;85.90;;;;;;5016965;28;20434;-71
2022/11/27 09:50:13;;;;;;;6.45;5.80;;;7.70;85.20;;;;;;5017345;28;20450;-74
2022/11/27 09:52:42;;;;;;;6.45;5.82;;;7.80;85.20;;;;;;5020593;28;20442;-74
2022/11/27 09:55:16;;;;;;;5.85;5.35;;;7.80;84.60;;;;;;5021260;28;20445;-65
2022/11/27 09:57:46;;;;;;;6.68;5.60;;;7.90;84.60;;;;;;5016116;28;20449;-71
2022/11/27 10:00:17;;;;;;;5.68;5.13;;;8.00;84.10;;;;;;5014111;28;20445;-71
2022/11/27 10:02:45;;;;;;;7.18;6.38;;;8.00;84.00;;;;;;5023866;28;20431;-72
2022/11/27 10:05:18;;;;;;;6.60;5.90;;;8.10;84.20;;;;;;5023337;28;20463;-72
2022/11/27 10:08:07;;;;;;;7.00;5.75;;;8.20;83.50;;;;;;5026234;28;20932;-73
2022/11/27 10:10:41;;;;;;;6.80;5.80;;;8.30;83.20;;;;;;5022800;28;20442;-71
2022/11/27 10:13:17;;;;;;;5.57;5.07;;;8.40;82.50;;;;;;5025100;28;20519;-71
2022/11/27 10:15:51;;;;;;;5.97;5.20;;;8.50;81.60;;;;;;4960663;28;1730140;-71
2022/11/27 10:18:25;;;;;;;5.87;5.07;;;8.60;81.20;;;;;;5020862;28;21074;-71
2022/11/27 10:20:56;;;;;;;5.40;4.90;;;8.60;80.40;;;;;;5024463;28;20465;-70
2022/11/27 10:23:40;;;;;;;5.55;4.50;;;8.60;80.30;;;;;;5022303;28;20450;-71
2022/11/27 10:26:15;;;;;;;5.50;5.00;;;8.60;79.50;;;;;;5017618;28;20460;-72
2022/11/27 10:28:48;;;;;;;5.90;4.70;;;8.60;79.50;;;;;;5021484;28;20426;-72
2022/11/27 10:31:22;;;;;;;5.40;4.60;;;8.60;79.70;;;;;;5016031;28;20464;-72
2022/11/27 10:33:53;;;;;;;5.87;5.23;;;8.50;79.70;;;;;;5016694;28;20443;-72
2022/11/27 10:36:28;;;;;;;5.22;4.75;;;8.50;80.20;;;;;;5021948;28;20440;-74
2022/11/27 10:38:57;;;;;;;5.40;4.80;;;8.50;80.10;;;;;;5026838;28;20510;-71
2022/11/27 10:41:30;;;;;;;7.18;5.30;;;8.50;80.40;;;;;;5023930;28;20461;-71
2022/11/27 10:44:03;;;;;;;5.28;4.78;;;8.50;80.30;;;;;;5013873;28;20911;-72
2022/11/27 10:46:37;;;;;;;5.32;4.70;;;8.60;80.00;;;;;;5017918;28;20456;-74
2022/11/27 10:49:04;;;;;;;5.53;4.95;;;8.60;79.90;;;;;;5017934;28;20757;-73
2022/11/27 10:51:35;;;;;;;6.55;4.70;;;8.70;79.90;;;;;;5019601;28;20448;-74
2022/11/27 10:54:07;;;;;;;5.63;4.70;;;8.70;79.90;;;;;;5024777;28;20897;-74
2022/11/27 10:56:56;;;;;;;5.78;4.40;;;8.70;79.10;;;;;;5027268;28;20444;-73
2022/11/27 10:59:26;;;;;;;4.70;4.30;;;8.80;79.10;;;;;;5020732;28;20788;-72
2022/11/27 11:01:56;;;;;;;6.20;4.60;;;8.80;79.20;;;;;;5016954;28;20573;-71
2022/11/27 11:04:26;;;;;;;5.05;4.40;;;8.80;80.00;;;;;;5020022;28;20474;-74
2022/11/27 11:06:53;;;;;;;4.90;4.40;;;8.90;79.30;;;;;;5025715;28;20435;-72
2022/11/27 11:09:24;;;;;;;5.53;4.47;;;8.90;79.70;;;;;;5026363;28;20435;-72
2022/11/27 11:11:51;;;;;;;7.00;4.95;;;8.90;80.20;;;;;;5030972;28;20516;-73
2022/11/27 11:14:20;;;;;;;5.57;4.93;;;9.00;79.90;;;;;;5025684;28;20593;-75
2022/11/27 11:16:47;;;;;;;6.60;4.77;;;9.00;80.00;;;;;;5033423;28;20487;-73
2022/11/27 11:19:29;;;;;;;5.20;4.70;;;9.10;79.40;;;;;;5027905;28;20525;-73
2022/11/27 11:21:56;;;;;;;6.05;5.45;;;9.10;78.70;;;;;;5029157;28;20419;-73
2022/11/27 11:24:27;;;;;;;5.20;4.60;;;9.10;78.60;;;;;;5025756;28;20806;-73
2022/11/27 11:26:57;;;;;;;5.43;4.70;;;9.10;77.50;;;;;;5025881;28;20434;-73
2022/11/27 11:29:32;;;;;;;5.10;4.60;;;9.10;76.90;;;;;;5023264;28;20442;-73
2022/11/27 11:32:06;;;;;;;7.15;4.43;;;9.00;77.50;;;;;;5023511;28;20426;-73
2022/11/27 11:34:35;;;;;;;5.00;4.50;;;9.10;76.80;;;;;;5026096;28;20848;-74
2022/11/27 11:37:04;;;;;;;7.78;6.05;;;9.10;77.90;;;;;;5023149;28;20470;-74
2022/11/27 11:39:33;;;;;;;6.30;4.97;;;9.00;77.70;;;;;;5017951;28;20482;-74
2022/11/27 11:42:01;;;;;;;5.70;4.20;;;9.10;77.90;;;;;;5014786;28;20452;-74
2022/11/27 11:44:33;;;;;;;4.80;4.18;;;9.10;77.20;;;;;;5022372;28;20431;-74
2022/11/27 11:47:00;;;;;;;4.80;4.30;;;9.10;76.70;;;;;;5025288;28;20419;-74
2022/11/27 11:49:28;;;;;;;5.30;4.25;;;9.10;76.70;;;;;;5028440;28;20470;-72
2022/11/27 11:52:11;;;;;;;5.38;4.88;;;9.10;76.80;;;;;;5019905;28;20421;-72
2022/11/27 11:55:03;;;;;;;5.07;4.57;;;9.10;77.10;;;;;;5020450;28;20950;-73
2022/11/27 11:57:55;;;;;;;5.90;4.90;;;9.20;77.60;;;;;;5019084;28;20450;-74
2022/11/27 12:00:25;;;;;;;6.15;5.30;;;9.20;77.60;;;;;;5012470;28;20503;-74
2022/11/27 12:03:18;;;;;;;6.63;5.15;;;9.20;77.30;;;;;;5016589;28;20525;-76
2022/11/27 12:06:05;;;;;;;5.07;4.63;;;9.20;76.70;;;;;;5034830;28;20481;-76
2022/11/27 12:08:51;;;;;;;4.78;4.38;;;9.20;76.80;;;;;;5035879;28;20506;-74
2022/11/27 12:11:24;;;;;;;5.80;4.70;;;9.30;76.00;;;;;;5031528;28;20443;-78
2022/11/27 12:14:10;;;;;;;5.45;4.95;;;9.30;75.90;;;;;;5020269;28;20431;-76
2022/11/27 12:16:47;;;;;;;5.87;4.37;;;9.30;75.60;;;;;;5018563;28;20535;-74
2022/11/27 12:19:51;;;;;;;4.20;3.80;;;9.30;74.70;;;;;;5016856;28;20435;-74
2022/11/27 12:22:30;;;;;;;5.50;4.40;;;9.40;74.90;;;;;;5016983;28;20452;-74
2022/11/27 12:25:05;;;;;;;4.78;4.10;;;9.40;74.60;;;;;;5015246;28;20435;-74
2022/11/27 12:27:50;;;;;;;4.70;4.25;;;9.40;74.30;;;;;;5008332;28;20842;-73
2022/11/27 12:30:32;;;;;;;5.00;4.15;;;9.40;74.00;;;;;;5018059;28;20430;-74
2022/11/27 12:33:25;;;;;;;4.40;4.00;;;9.40;74.40;;;;;;5017279;28;20569;-74
2022/11/27 12:36:00;;;;;;;5.88;4.30;;;9.40;74.50;;;;;;5016030;28;21388;-74
2022/11/27 12:38:49;;;;;;;5.57;4.20;;;9.40;74.90;;;;;;5020995;28;20562;-73
2022/11/27 12:41:33;;;;;;;4.90;4.40;;;9.40;75.20;;;;;;5017479;28;20431;-74
2022/11/27 12:44:00;;;;;;;4.60;4.20;;;9.40;75.20;;;;;;5020686;28;20442;-74
2022/11/27 12:46:33;;;;;;;5.32;4.53;;;9.50;74.70;;;;;;5024536;28;20438;-73
2022/11/27 12:49:05;;;;;;;5.07;4.40;;;9.40;74.40;;;;;;5023301;28;20747;-73
2022/11/27 12:51:37;;;;;;;4.68;4.03;;;9.40;74.90;;;;;;5023573;28;20453;-74
2022/11/27 12:54:09;;;;;;;4.80;4.18;;;9.40;74.60;;;;;;5023692;28;20487;-74
2022/11/27 12:56:42;;;;;;;4.82;3.90;;;9.40;74.70;;;;;;5028467;28;20897;-73
2022/11/27 12:59:16;;;;;;;4.97;4.10;;;9.40;74.30;;;;;;5026872;28;20809;-74
2022/11/27 13:01:46;;;;;;;4.40;4.00;;;9.40;74.60;;;;;;5027218;28;20419;-73
2022/11/27 13:04:22;;;;;;;4.43;3.90;;;9.40;74.00;;;;;;5026741;28;20541;-73
2022/11/27 13:06:58;;;;;;;5.15;4.30;;;9.40;74.50;;;;;;5025868;28;20778;-74
2022/11/27 13:09:36;;;;;;;4.32;3.53;;;9.40;74.20;;;;;;5024704;28;20896;-74
2022/11/27 13:12:04;;;;;;;5.35;3.80;;;9.40;73.60;;;;;;5023953;28;20426;-74
2022/11/27 13:14:36;;;;;;;4.28;3.88;;;9.40;73.60;;;;;;5023939;28;20526;-73